Delamere, North Dakota
Current Conditions -  °F | °C
As of 9:55 PM on Sunday 23 Nov 2014 (Local Time) from KGWR Reporting Station
Overcast Overcast  
Wind Chill:   Ceiling: 2000
Heat Index: 21°   Visibility: 10mi
Dew Point: 12°   Wind: 24mph
Humidity: 68%   Direction: 320°NW
Pressure: 29.6"   Gusts: 30mph
Location:  46.239°N, 97.3829°W
Report Text: KGWR 240355Z AUTO 32021G26KT 10SM BKN020 OVC030 M06/M11 A2960 RMK A01 P000
Loading
Personal Weather Stations






























Interactive Weather Map New forecast layout! Learn more

10-Day Weather Forecast

Advertisements
Track Severe Weather on mobile